sensor_id;sensor_type;location;lat;lon;timestamp;P1;durP1;ratioP1;P2;durP2;ratioP2
20417;SDS011;10368;51.436;6.774;2023-04-15T00:01:05;14.30;;;8.80;;
20417;SDS011;10368;51.436;6.774;2023-04-15T00:03:33;11.33;;;8.13;;
20417;SDS011;10368;51.436;6.774;2023-04-15T00:06:00;12.20;;;8.47;;
20417;SDS011;10368;51.436;6.774;2023-04-15T00:08:29;9.53;;;8.57;;
20417;SDS011;10368;51.436;6.774;2023-04-15T00:10:56;10.60;;;8.20;;
20417;SDS011;10368;51.436;6.774;2023-04-15T00:13:28;9.50;;;8.47;;
20417;SDS011;10368;51.436;6.774;2023-04-15T00:15:55;10.70;;;8.80;;
20417;SDS011;10368;51.436;6.774;2023-04-15T00:18:23;13.33;;;8.63;;
20417;SDS011;10368;51.436;6.774;2023-04-15T00:20:51;14.40;;;8.47;;
20417;SDS011;10368;51.436;6.774;2023-04-15T00:23:18;9.17;;;8.07;;
20417;SDS011;10368;51.436;6.774;2023-04-15T00:25:46;10.87;;;8.47;;
20417;SDS011;10368;51.436;6.774;2023-04-15T00:28:13;10.03;;;8.83;;
20417;SDS011;10368;51.436;6.774;2023-04-15T00:30:40;10.43;;;8.57;;
20417;SDS011;10368;51.436;6.774;2023-04-15T00:33:08;14.00;;;9.37;;
20417;SDS011;10368;51.436;6.774;2023-04-15T00:35:35;10.57;;;9.47;;
20417;SDS011;10368;51.436;6.774;2023-04-15T00:38:03;13.97;;;10.10;;
20417;SDS011;10368;51.436;6.774;2023-04-15T00:40:30;10.37;;;8.67;;
20417;SDS011;10368;51.436;6.774;2023-04-15T00:42:58;12.03;;;8.73;;
20417;SDS011;10368;51.436;6.774;2023-04-15T00:45:26;14.40;;;9.23;;
20417;SDS011;10368;51.436;6.774;2023-04-15T00:47:53;9.53;;;8.50;;
20417;SDS011;10368;51.436;6.774;2023-04-15T00:50:21;10.80;;;9.20;;
20417;SDS011;10368;51.436;6.774;2023-04-15T00:52:48;11.47;;;9.23;;
20417;SDS011;10368;51.436;6.774;2023-04-15T00:55:15;11.73;;;8.33;;
20417;SDS011;10368;51.436;6.774;2023-04-15T00:57:42;9.93;;;8.53;;
20417;SDS011;10368;51.436;6.774;2023-04-15T01:00:10;12.33;;;8.73;;
20417;SDS011;10368;51.436;6.774;2023-04-15T01:02:37;8.90;;;7.93;;
20417;SDS011;10368;51.436;6.774;2023-04-15T01:05:05;9.50;;;8.13;;
20417;SDS011;10368;51.436;6.774;2023-04-15T01:07:33;11.10;;;8.37;;
20417;SDS011;10368;51.436;6.774;2023-04-15T01:10:04;10.47;;;8.20;;
20417;SDS011;10368;51.436;6.774;2023-04-15T01:12:31;12.30;;;8.83;;
20417;SDS011;10368;51.436;6.774;2023-04-15T01:14:59;10.77;;;9.07;;
20417;SDS011;10368;51.436;6.774;2023-04-15T01:17:26;9.73;;;8.73;;
20417;SDS011;10368;51.436;6.774;2023-04-15T01:19:55;12.17;;;9.13;;
20417;SDS011;10368;51.436;6.774;2023-04-15T01:22:25;12.63;;;9.50;;
20417;SDS011;10368;51.436;6.774;2023-04-15T01:25:04;12.30;;;9.33;;
20417;SDS011;10368;51.436;6.774;2023-04-15T01:27:33;15.13;;;9.77;;
20417;SDS011;10368;51.436;6.774;2023-04-15T01:30:01;9.93;;;8.80;;
20417;SDS011;10368;51.436;6.774;2023-04-15T01:32:30;11.30;;;10.13;;
20417;SDS011;10368;51.436;6.774;2023-04-15T01:34:57;12.37;;;9.37;;
20417;SDS011;10368;51.436;6.774;2023-04-15T01:37:24;12.60;;;9.23;;
20417;SDS011;10368;51.436;6.774;2023-04-15T01:39:52;13.20;;;10.13;;
20417;SDS011;10368;51.436;6.774;2023-04-15T01:42:22;11.23;;;9.47;;
20417;SDS011;10368;51.436;6.774;2023-04-15T01:44:50;11.97;;;8.53;;
20417;SDS011;10368;51.436;6.774;2023-04-15T01:47:17;11.80;;;9.37;;
20417;SDS011;10368;51.436;6.774;2023-04-15T01:49:44;16.07;;;9.80;;
20417;SDS011;10368;51.436;6.774;2023-04-15T01:52:11;12.00;;;9.77;;
20417;SDS011;10368;51.436;6.774;2023-04-15T01:54:39;9.23;;;8.40;;
20417;SDS011;10368;51.436;6.774;2023-04-15T01:57:06;13.83;;;10.00;;
20417;SDS011;10368;51.436;6.774;2023-04-15T01:59:34;11.40;;;9.77;;
20417;SDS011;10368;51.436;6.774;2023-04-15T02:02:04;10.43;;;9.30;;
20417;SDS011;10368;51.436;6.774;2023-04-15T02:04:31;11.20;;;9.90;;
20417;SDS011;10368;51.436;6.774;2023-04-15T02:06:59;11.43;;;10.07;;
20417;SDS011;10368;51.436;6.774;2023-04-15T02:09:26;12.00;;;10.23;;
20417;SDS011;10368;51.436;6.774;2023-04-15T02:11:54;12.63;;;10.50;;
20417;SDS011;10368;51.436;6.774;2023-04-15T02:14:21;13.87;;;11.00;;
20417;SDS011;10368;51.436;6.774;2023-04-15T02:16:49;16.30;;;10.37;;
20417;SDS011;10368;51.436;6.774;2023-04-15T02:19:16;14.20;;;10.67;;
20417;SDS011;10368;51.436;6.774;2023-04-15T02:21:44;12.77;;;10.90;;
20417;SDS011;10368;51.436;6.774;2023-04-15T02:24:11;11.30;;;10.10;;
20417;SDS011;10368;51.436;6.774;2023-04-15T02:26:38;12.70;;;10.33;;
20417;SDS011;10368;51.436;6.774;2023-04-15T02:29:05;13.00;;;10.97;;
20417;SDS011;10368;51.436;6.774;2023-04-15T02:31:33;12.80;;;11.03;;
20417;SDS011;10368;51.436;6.774;2023-04-15T02:34:03;15.77;;;11.80;;
20417;SDS011;10368;51.436;6.774;2023-04-15T02:36:30;13.90;;;10.33;;
20417;SDS011;10368;51.436;6.774;2023-04-15T02:38:59;11.37;;;10.10;;
20417;SDS011;10368;51.436;6.774;2023-04-15T02:41:28;19.50;;;10.73;;
20417;SDS011;10368;51.436;6.774;2023-04-15T02:43:55;12.50;;;11.20;;
20417;SDS011;10368;51.436;6.774;2023-04-15T02:46:22;13.33;;;10.07;;
20417;SDS011;10368;51.436;6.774;2023-04-15T02:48:50;14.40;;;10.80;;
20417;SDS011;10368;51.436;6.774;2023-04-15T02:51:19;13.27;;;11.23;;
20417;SDS011;10368;51.436;6.774;2023-04-15T02:53:48;11.97;;;10.07;;
20417;SDS011;10368;51.436;6.774;2023-04-15T02:56:15;13.13;;;11.17;;
20417;SDS011;10368;51.436;6.774;2023-04-15T02:58:44;14.07;;;11.70;;
20417;SDS011;10368;51.436;6.774;2023-04-15T03:01:12;16.30;;;10.63;;
20417;SDS011;10368;51.436;6.774;2023-04-15T03:03:39;14.77;;;11.67;;
20417;SDS011;10368;51.436;6.774;2023-04-15T03:06:07;17.53;;;11.30;;
20417;SDS011;10368;51.436;6.774;2023-04-15T03:08:34;12.57;;;10.90;;
20417;SDS011;10368;51.436;6.774;2023-04-15T03:11:02;14.97;;;11.90;;
20417;SDS011;10368;51.436;6.774;2023-04-15T03:13:30;11.77;;;9.77;;
20417;SDS011;10368;51.436;6.774;2023-04-15T03:15:58;11.30;;;10.10;;
20417;SDS011;10368;51.436;6.774;2023-04-15T03:18:25;15.73;;;11.80;;
20417;SDS011;10368;51.436;6.774;2023-04-15T03:20:54;12.43;;;10.87;;
20417;SDS011;10368;51.436;6.774;2023-04-15T03:23:21;12.10;;;10.10;;
20417;SDS011;10368;51.436;6.774;2023-04-15T03:25:48;16.43;;;10.23;;
20417;SDS011;10368;51.436;6.774;2023-04-15T03:28:16;15.03;;;10.63;;
20417;SDS011;10368;51.436;6.774;2023-04-15T03:30:43;13.40;;;12.00;;
20417;SDS011;10368;51.436;6.774;2023-04-15T03:33:10;11.63;;;10.27;;
20417;SDS011;10368;51.436;6.774;2023-04-15T03:35:37;12.67;;;11.03;;
20417;SDS011;10368;51.436;6.774;2023-04-15T03:38:04;11.73;;;10.43;;
20417;SDS011;10368;51.436;6.774;2023-04-15T03:40:33;12.57;;;9.83;;
20417;SDS011;10368;51.436;6.774;2023-04-15T03:43:00;11.20;;;9.83;;
20417;SDS011;10368;51.436;6.774;2023-04-15T03:45:28;15.70;;;11.07;;
20417;SDS011;10368;51.436;6.774;2023-04-15T03:47:55;14.13;;;10.97;;
20417;SDS011;10368;51.436;6.774;2023-04-15T03:50:36;14.67;;;10.93;;
20417;SDS011;10368;51.436;6.774;2023-04-15T03:53:06;11.80;;;10.47;;
20417;SDS011;10368;51.436;6.774;2023-04-15T03:55:33;13.50;;;11.23;;
20417;SDS011;10368;51.436;6.774;2023-04-15T03:58:00;11.47;;;10.37;;
20417;SDS011;10368;51.436;6.774;2023-04-15T04:00:27;12.47;;;10.23;;
20417;SDS011;10368;51.436;6.774;2023-04-15T04:02:54;10.80;;;9.33;;
20417;SDS011;10368;51.436;6.774;2023-04-15T04:05:21;13.50;;;10.70;;
20417;SDS011;10368;51.436;6.774;2023-04-15T04:07:48;12.50;;;10.13;;
20417;SDS011;10368;51.436;6.774;2023-04-15T04:10:15;11.43;;;9.80;;
20417;SDS011;10368;51.436;6.774;2023-04-15T04:12:43;12.90;;;9.90;;
20417;SDS011;10368;51.436;6.774;2023-04-15T04:15:10;10.73;;;9.50;;
20417;SDS011;10368;51.436;6.774;2023-04-15T04:17:37;13.67;;;9.50;;
20417;SDS011;10368;51.436;6.774;2023-04-15T04:20:04;14.23;;;10.30;;
20417;SDS011;10368;51.436;6.774;2023-04-15T04:22:36;10.87;;;9.37;;
20417;SDS011;10368;51.436;6.774;2023-04-15T04:25:05;11.47;;;9.83;;
20417;SDS011;10368;51.436;6.774;2023-04-15T04:27:33;11.60;;;9.77;;
20417;SDS011;10368;51.436;6.774;2023-04-15T04:30:01;12.80;;;10.30;;
20417;SDS011;10368;51.436;6.774;2023-04-15T04:32:28;14.63;;;10.90;;
20417;SDS011;10368;51.436;6.774;2023-04-15T04:34:55;11.20;;;10.10;;
20417;SDS011;10368;51.436;6.774;2023-04-15T04:37:23;14.47;;;10.43;;
20417;SDS011;10368;51.436;6.774;2023-04-15T04:39:50;13.10;;;10.53;;
20417;SDS011;10368;51.436;6.774;2023-04-15T04:42:18;11.83;;;10.60;;
20417;SDS011;10368;51.436;6.774;2023-04-15T04:44:45;10.73;;;9.63;;
20417;SDS011;10368;51.436;6.774;2023-04-15T04:47:13;11.83;;;9.40;;
20417;SDS011;10368;51.436;6.774;2023-04-15T04:49:42;11.27;;;9.73;;
20417;SDS011;10368;51.436;6.774;2023-04-15T04:52:09;12.20;;;10.30;;
20417;SDS011;10368;51.436;6.774;2023-04-15T04:54:37;12.07;;;10.67;;
20417;SDS011;10368;51.436;6.774;2023-04-15T04:57:04;10.90;;;9.57;;
20417;SDS011;10368;51.436;6.774;2023-04-15T04:59:33;12.37;;;9.70;;
20417;SDS011;10368;51.436;6.774;2023-04-15T05:02:00;14.93;;;11.23;;
20417;SDS011;10368;51.436;6.774;2023-04-15T05:04:28;11.63;;;10.43;;
20417;SDS011;10368;51.436;6.774;2023-04-15T05:06:57;11.80;;;10.63;;
20417;SDS011;10368;51.436;6.774;2023-04-15T05:09:24;12.97;;;10.20;;
20417;SDS011;10368;51.436;6.774;2023-04-15T05:11:52;13.70;;;11.60;;
20417;SDS011;10368;51.436;6.774;2023-04-15T05:14:19;13.43;;;10.50;;
20417;SDS011;10368;51.436;6.774;2023-04-15T05:16:48;11.03;;;9.93;;
20417;SDS011;10368;51.436;6.774;2023-04-15T05:19:15;14.07;;;10.37;;
20417;SDS011;10368;51.436;6.774;2023-04-15T05:21:42;11.53;;;10.33;;
20417;SDS011;10368;51.436;6.774;2023-04-15T05:24:10;12.77;;;10.70;;
20417;SDS011;10368;51.436;6.774;2023-04-15T05:26:37;11.90;;;10.43;;
20417;SDS011;10368;51.436;6.774;2023-04-15T05:29:04;12.00;;;10.77;;
20417;SDS011;10368;51.436;6.774;2023-04-15T05:31:31;11.87;;;10.60;;
20417;SDS011;10368;51.436;6.774;2023-04-15T05:33:59;13.77;;;11.03;;
20417;SDS011;10368;51.436;6.774;2023-04-15T05:36:26;13.67;;;11.33;;
20417;SDS011;10368;51.436;6.774;2023-04-15T05:38:54;11.80;;;10.60;;
20417;SDS011;10368;51.436;6.774;2023-04-15T05:41:21;15.47;;;11.57;;
20417;SDS011;10368;51.436;6.774;2023-04-15T05:43:48;12.13;;;10.87;;
20417;SDS011;10368;51.436;6.774;2023-04-15T05:46:15;11.83;;;10.13;;
20417;SDS011;10368;51.436;6.774;2023-04-15T05:48:43;12.50;;;11.27;;
20417;SDS011;10368;51.436;6.774;2023-04-15T05:51:10;12.83;;;10.57;;
20417;SDS011;10368;51.436;6.774;2023-04-15T05:53:37;12.30;;;11.10;;
20417;SDS011;10368;51.436;6.774;2023-04-15T05:56:06;12.93;;;10.83;;
20417;SDS011;10368;51.436;6.774;2023-04-15T05:58:33;12.30;;;10.77;;
20417;SDS011;10368;51.436;6.774;2023-04-15T06:01:01;13.57;;;11.23;;
20417;SDS011;10368;51.436;6.774;2023-04-15T06:03:29;14.27;;;11.70;;
20417;SDS011;10368;51.436;6.774;2023-04-15T06:05:56;13.00;;;11.70;;
20417;SDS011;10368;51.436;6.774;2023-04-15T06:08:23;13.07;;;11.33;;
20417;SDS011;10368;51.436;6.774;2023-04-15T06:10:50;15.60;;;12.73;;
20417;SDS011;10368;51.436;6.774;2023-04-15T06:13:18;14.47;;;11.87;;
20417;SDS011;10368;51.436;6.774;2023-04-15T06:15:45;14.20;;;12.27;;
20417;SDS011;10368;51.436;6.774;2023-04-15T06:18:12;16.63;;;13.20;;
20417;SDS011;10368;51.436;6.774;2023-04-15T06:20:39;16.20;;;13.40;;
20417;SDS011;10368;51.436;6.774;2023-04-15T06:23:07;15.77;;;13.57;;
20417;SDS011;10368;51.436;6.774;2023-04-15T06:25:34;27.70;;;14.67;;
20417;SDS011;10368;51.436;6.774;2023-04-15T06:28:01;20.40;;;13.87;;
20417;SDS011;10368;51.436;6.774;2023-04-15T06:30:28;18.00;;;14.00;;
20417;SDS011;10368;51.436;6.774;2023-04-15T06:32:56;16.60;;;13.47;;
20417;SDS011;10368;51.436;6.774;2023-04-15T06:35:23;15.30;;;13.70;;
20417;SDS011;10368;51.436;6.774;2023-04-15T06:37:50;15.37;;;12.83;;
20417;SDS011;10368;51.436;6.774;2023-04-15T06:40:17;17.70;;;13.00;;
20417;SDS011;10368;51.436;6.774;2023-04-15T06:42:44;15.77;;;14.17;;
20417;SDS011;10368;51.436;6.774;2023-04-15T06:45:12;17.47;;;13.90;;
20417;SDS011;10368;51.436;6.774;2023-04-15T06:47:39;17.27;;;13.83;;
20417;SDS011;10368;51.436;6.774;2023-04-15T06:50:10;14.60;;;13.00;;
20417;SDS011;10368;51.436;6.774;2023-04-15T06:52:37;15.70;;;14.07;;
20417;SDS011;10368;51.436;6.774;2023-04-15T06:55:04;15.07;;;13.27;;
20417;SDS011;10368;51.436;6.774;2023-04-15T06:57:34;15.43;;;13.87;;
20417;SDS011;10368;51.436;6.774;2023-04-15T07:00:02;15.80;;;13.40;;
20417;SDS011;10368;51.436;6.774;2023-04-15T07:02:30;16.37;;;12.57;;
20417;SDS011;10368;51.436;6.774;2023-04-15T07:04:58;15.67;;;12.40;;
20417;SDS011;10368;51.436;6.774;2023-04-15T07:07:25;13.73;;;12.33;;
20417;SDS011;10368;51.436;6.774;2023-04-15T07:09:52;16.80;;;12.90;;
20417;SDS011;10368;51.436;6.774;2023-04-15T07:12:20;14.77;;;12.70;;
20417;SDS011;10368;51.436;6.774;2023-04-15T07:14:47;13.23;;;11.23;;
20417;SDS011;10368;51.436;6.774;2023-04-15T07:17:14;12.57;;;10.60;;
20417;SDS011;10368;51.436;6.774;2023-04-15T07:19:42;13.00;;;11.33;;
20417;SDS011;10368;51.436;6.774;2023-04-15T07:22:09;13.50;;;10.83;;
20417;SDS011;10368;51.436;6.774;2023-04-15T07:24:36;10.80;;;9.70;;
20417;SDS011;10368;51.436;6.774;2023-04-15T07:27:03;10.37;;;9.27;;
20417;SDS011;10368;51.436;6.774;2023-04-15T07:29:31;10.90;;;9.80;;
20417;SDS011;10368;51.436;6.774;2023-04-15T07:31:58;10.30;;;9.30;;
20417;SDS011;10368;51.436;6.774;2023-04-15T07:34:25;10.17;;;9.17;;
20417;SDS011;10368;51.436;6.774;2023-04-15T07:36:52;10.17;;;9.07;;
20417;SDS011;10368;51.436;6.774;2023-04-15T07:39:20;10.37;;;9.33;;
20417;SDS011;10368;51.436;6.774;2023-04-15T07:41:47;10.37;;;9.27;;
20417;SDS011;10368;51.436;6.774;2023-04-15T07:44:14;10.57;;;9.47;;
20417;SDS011;10368;51.436;6.774;2023-04-15T07:46:41;9.27;;;8.33;;
20417;SDS011;10368;51.436;6.774;2023-04-15T07:49:09;8.97;;;7.80;;
20417;SDS011;10368;51.436;6.774;2023-04-15T07:51:36;8.53;;;7.67;;
20417;SDS011;10368;51.436;6.774;2023-04-15T07:54:04;9.33;;;8.13;;
20417;SDS011;10368;51.436;6.774;2023-04-15T07:56:31;7.37;;;6.67;;
20417;SDS011;10368;51.436;6.774;2023-04-15T07:58:58;7.67;;;6.53;;
20417;SDS011;10368;51.436;6.774;2023-04-15T08:01:27;7.87;;;6.23;;
20417;SDS011;10368;51.436;6.774;2023-04-15T08:03:55;7.43;;;6.50;;
20417;SDS011;10368;51.436;6.774;2023-04-15T08:06:23;7.30;;;6.33;;
20417;SDS011;10368;51.436;6.774;2023-04-15T08:08:50;6.00;;;5.40;;
20417;SDS011;10368;51.436;6.774;2023-04-15T08:11:17;4.97;;;4.40;;
20417;SDS011;10368;51.436;6.774;2023-04-15T08:13:45;4.30;;;3.90;;
20417;SDS011;10368;51.436;6.774;2023-04-15T08:18:39;4.67;;;4.23;;
20417;SDS011;10368;51.436;6.774;2023-04-15T08:21:09;5.00;;;4.50;;
20417;SDS011;10368;51.436;6.774;2023-04-15T08:23:37;4.60;;;4.20;;
20417;SDS011;10368;51.436;6.774;2023-04-15T08:26:04;5.10;;;4.30;;
20417;SDS011;10368;51.436;6.774;2023-04-15T08:28:31;4.40;;;4.00;;
20417;SDS011;10368;51.436;6.774;2023-04-15T08:30:59;4.30;;;3.87;;
20417;SDS011;10368;51.436;6.774;2023-04-15T08:33:26;4.00;;;3.60;;
20417;SDS011;10368;51.436;6.774;2023-04-15T08:35:54;11.97;;;9.07;;
20417;SDS011;10368;51.436;6.774;2023-04-15T08:38:21;4.23;;;3.70;;
20417;SDS011;10368;51.436;6.774;2023-04-15T08:40:49;4.50;;;3.70;;
20417;SDS011;10368;51.436;6.774;2023-04-15T08:43:20;6.30;;;4.00;;
20417;SDS011;10368;51.436;6.774;2023-04-15T08:45:52;4.57;;;4.10;;
20417;SDS011;10368;51.436;6.774;2023-04-15T08:48:19;5.83;;;3.67;;
20417;SDS011;10368;51.436;6.774;2023-04-15T08:50:49;4.97;;;3.77;;
20417;SDS011;10368;51.436;6.774;2023-04-15T08:53:16;4.43;;;3.77;;
20417;SDS011;10368;51.436;6.774;2023-04-15T08:55:44;3.50;;;3.20;;
20417;SDS011;10368;51.436;6.774;2023-04-15T08:58:12;5.20;;;3.77;;
20417;SDS011;10368;51.436;6.774;2023-04-15T09:00:41;3.97;;;3.50;;
20417;SDS011;10368;51.436;6.774;2023-04-15T09:03:08;4.43;;;4.00;;
20417;SDS011;10368;51.436;6.774;2023-04-15T09:05:36;3.93;;;3.53;;
20417;SDS011;10368;51.436;6.774;2023-04-15T09:08:06;5.20;;;4.10;;
20417;SDS011;10368;51.436;6.774;2023-04-15T09:10:33;6.70;;;3.23;;
20417;SDS011;10368;51.436;6.774;2023-04-15T09:13:01;4.50;;;3.00;;
20417;SDS011;10368;51.436;6.774;2023-04-15T09:15:29;4.80;;;3.33;;
20417;SDS011;10368;51.436;6.774;2023-04-15T09:17:58;5.70;;;3.60;;
20417;SDS011;10368;51.436;6.774;2023-04-15T09:20:26;3.53;;;3.23;;
20417;SDS011;10368;51.436;6.774;2023-04-15T09:22:53;5.73;;;3.37;;
20417;SDS011;10368;51.436;6.774;2023-04-15T09:27:48;3.40;;;3.10;;
20417;SDS011;10368;51.436;6.774;2023-04-15T09:30:15;4.10;;;3.70;;
20417;SDS011;10368;51.436;6.774;2023-04-15T09:32:55;3.50;;;3.20;;
20417;SDS011;10368;51.436;6.774;2023-04-15T09:35:23;4.53;;;3.43;;
20417;SDS011;10368;51.436;6.774;2023-04-15T09:37:51;4.67;;;3.63;;
20417;SDS011;10368;51.436;6.774;2023-04-15T09:40:34;3.70;;;3.30;;
20417;SDS011;10368;51.436;6.774;2023-04-15T09:43:04;3.80;;;3.50;;
20417;SDS011;10368;51.436;6.774;2023-04-15T09:45:33;4.83;;;4.20;;
20417;SDS011;10368;51.436;6.774;2023-04-15T09:48:14;5.10;;;4.00;;
20417;SDS011;10368;51.436;6.774;2023-04-15T09:50:42;5.27;;;4.03;;
20417;SDS011;10368;51.436;6.774;2023-04-15T09:53:09;4.40;;;4.00;;
20417;SDS011;10368;51.436;6.774;2023-04-15T09:55:37;4.57;;;4.17;;
20417;SDS011;10368;51.436;6.774;2023-04-15T09:58:07;5.20;;;4.70;;
20417;SDS011;10368;51.436;6.774;2023-04-15T10:00:35;6.77;;;4.47;;
20417;SDS011;10368;51.436;6.774;2023-04-15T10:03:09;4.70;;;4.27;;
20417;SDS011;10368;51.436;6.774;2023-04-15T10:05:37;4.53;;;4.07;;
20417;SDS011;10368;51.436;6.774;2023-04-15T10:08:04;5.73;;;4.07;;
20417;SDS011;10368;51.436;6.774;2023-04-15T10:10:32;4.40;;;4.00;;
20417;SDS011;10368;51.436;6.774;2023-04-15T10:13:00;4.73;;;4.23;;
20417;SDS011;10368;51.436;6.774;2023-04-15T10:15:27;5.30;;;4.80;;
20417;SDS011;10368;51.436;6.774;2023-04-15T10:17:55;4.43;;;4.03;;
20417;SDS011;10368;51.436;6.774;2023-04-15T10:20:24;7.30;;;5.40;;
20417;SDS011;10368;51.436;6.774;2023-04-15T10:22:51;5.27;;;4.77;;
20417;SDS011;10368;51.436;6.774;2023-04-15T10:25:19;4.63;;;4.23;;
20417;SDS011;10368;51.436;6.774;2023-04-15T10:27:47;5.00;;;4.57;;
20417;SDS011;10368;51.436;6.774;2023-04-15T10:30:17;7.53;;;5.90;;
20417;SDS011;10368;51.436;6.774;2023-04-15T10:32:44;4.90;;;4.50;;
20417;SDS011;10368;51.436;6.774;2023-04-15T10:35:11;5.37;;;4.87;;
20417;SDS011;10368;51.436;6.774;2023-04-15T10:37:39;5.83;;;4.77;;
20417;SDS011;10368;51.436;6.774;2023-04-15T10:40:26;4.28;;;3.88;;
20417;SDS011;10368;51.436;6.774;2023-04-15T10:42:54;5.10;;;4.35;;
20417;SDS011;10368;51.436;6.774;2023-04-15T10:45:21;5.32;;;4.85;;
20417;SDS011;10368;51.436;6.774;2023-04-15T10:47:51;5.90;;;5.30;;
20417;SDS011;10368;51.436;6.774;2023-04-15T10:50:20;5.53;;;5.03;;
20417;SDS011;10368;51.436;6.774;2023-04-15T10:52:49;5.07;;;4.60;;
20417;SDS011;10368;51.436;6.774;2023-04-15T10:55:19;4.87;;;4.20;;
20417;SDS011;10368;51.436;6.774;2023-04-15T10:57:50;5.40;;;4.33;;
20417;SDS011;10368;51.436;6.774;2023-04-15T11:00:18;4.03;;;3.67;;
20417;SDS011;10368;51.436;6.774;2023-04-15T11:02:47;4.37;;;3.73;;
20417;SDS011;10368;51.436;6.774;2023-04-15T11:05:15;5.23;;;4.20;;
20417;SDS011;10368;51.436;6.774;2023-04-15T11:12:40;5.53;;;4.57;;
20417;SDS011;10368;51.436;6.774;2023-04-15T11:17:54;4.57;;;4.17;;
20417;SDS011;10368;51.436;6.774;2023-04-15T11:20:22;4.67;;;3.80;;
20417;SDS011;10368;51.436;6.774;2023-04-15T11:22:50;4.63;;;3.97;;
20417;SDS011;10368;51.436;6.774;2023-04-15T11:25:34;5.50;;;3.90;;
20417;SDS011;10368;51.436;6.774;2023-04-15T11:28:04;4.60;;;4.13;;
20417;SDS011;10368;51.436;6.774;2023-04-15T11:30:33;5.17;;;3.90;;
20417;SDS011;10368;51.436;6.774;2023-04-15T11:33:01;4.40;;;4.00;;
20417;SDS011;10368;51.436;6.774;2023-04-15T11:35:29;4.20;;;3.80;;
20417;SDS011;10368;51.436;6.774;2023-04-15T11:37:56;5.50;;;3.90;;
20417;SDS011;10368;51.436;6.774;2023-04-15T11:40:24;4.33;;;3.93;;
20417;SDS011;10368;51.436;6.774;2023-04-15T11:48:15;3.30;;;2.93;;
20417;SDS011;10368;51.436;6.774;2023-04-15T11:50:42;3.43;;;2.93;;
20417;SDS011;10368;51.436;6.774;2023-04-15T11:53:10;4.20;;;3.60;;
20417;SDS011;10368;51.436;6.774;2023-04-15T11:55:41;5.43;;;4.05;;
20417;SDS011;10368;51.436;6.774;2023-04-15T12:00:45;4.40;;;3.70;;
20417;SDS011;10368;51.436;6.774;2023-04-15T12:11:39;3.73;;;3.00;;
20417;SDS011;10368;51.436;6.774;2023-04-15T12:14:07;3.83;;;3.43;;
20417;SDS011;10368;51.436;6.774;2023-04-15T12:16:35;4.67;;;4.27;;
20417;SDS011;10368;51.436;6.774;2023-04-15T12:19:15;6.43;;;3.53;;
20417;SDS011;10368;51.436;6.774;2023-04-15T12:21:43;3.83;;;3.30;;
20417;SDS011;10368;51.436;6.774;2023-04-15T12:24:11;3.77;;;3.13;;
20417;SDS011;10368;51.436;6.774;2023-04-15T12:26:45;3.73;;;3.20;;
20417;SDS011;10368;51.436;6.774;2023-04-15T12:29:14;5.03;;;3.30;;
20417;SDS011;10368;51.436;6.774;2023-04-15T12:34:15;4.17;;;3.10;;
20417;SDS011;10368;51.436;6.774;2023-04-15T12:36:43;5.00;;;3.97;;
20417;SDS011;10368;51.436;6.774;2023-04-15T12:39:10;9.60;;;3.97;;
20417;SDS011;10368;51.436;6.774;2023-04-15T12:41:40;5.83;;;3.50;;
20417;SDS011;10368;51.436;6.774;2023-04-15T12:44:07;4.57;;;4.07;;
20417;SDS011;10368;51.436;6.774;2023-04-15T12:46:35;5.87;;;3.50;;
20417;SDS011;10368;51.436;6.774;2023-04-15T12:49:02;8.63;;;3.73;;
20417;SDS011;10368;51.436;6.774;2023-04-15T12:51:30;4.77;;;3.13;;
20417;SDS011;10368;51.436;6.774;2023-04-15T12:53:57;3.43;;;3.13;;
20417;SDS011;10368;51.436;6.774;2023-04-15T12:56:24;4.80;;;4.00;;
20417;SDS011;10368;51.436;6.774;2023-04-15T12:58:52;3.87;;;2.80;;
20417;SDS011;10368;51.436;6.774;2023-04-15T13:01:19;4.00;;;3.20;;
20417;SDS011;10368;51.436;6.774;2023-04-15T13:03:48;4.30;;;2.93;;
20417;SDS011;10368;51.436;6.774;2023-04-15T13:06:16;3.93;;;3.53;;
20417;SDS011;10368;51.436;6.774;2023-04-15T13:08:43;3.43;;;3.13;;
20417;SDS011;10368;51.436;6.774;2023-04-15T13:11:23;4.40;;;3.50;;
20417;SDS011;10368;51.436;6.774;2023-04-15T13:13:50;8.17;;;3.63;;
20417;SDS011;10368;51.436;6.774;2023-04-15T13:16:18;8.57;;;7.67;;
20417;SDS011;10368;51.436;6.774;2023-04-15T13:18:46;5.23;;;4.63;;
20417;SDS011;10368;51.436;6.774;2023-04-15T13:21:14;4.10;;;3.70;;
20417;SDS011;10368;51.436;6.774;2023-04-15T13:23:41;5.30;;;3.80;;
20417;SDS011;10368;51.436;6.774;2023-04-15T13:26:08;4.03;;;3.73;;
20417;SDS011;10368;51.436;6.774;2023-04-15T13:28:35;3.80;;;3.13;;
20417;SDS011;10368;51.436;6.774;2023-04-15T13:31:04;3.77;;;3.03;;
20417;SDS011;10368;51.436;6.774;2023-04-15T13:33:31;3.10;;;2.80;;
20417;SDS011;10368;51.436;6.774;2023-04-15T13:35:58;2.97;;;2.67;;
20417;SDS011;10368;51.436;6.774;2023-04-15T13:38:26;4.27;;;3.87;;
20417;SDS011;10368;51.436;6.774;2023-04-15T13:40:53;3.90;;;2.97;;
20417;SDS011;10368;51.436;6.774;2023-04-15T13:43:20;4.93;;;3.07;;
20417;SDS011;10368;51.436;6.774;2023-04-15T13:45:47;4.17;;;2.93;;
20417;SDS011;10368;51.436;6.774;2023-04-15T13:48:15;5.63;;;4.07;;
20417;SDS011;10368;51.436;6.774;2023-04-15T13:50:42;3.47;;;3.00;;
20417;SDS011;10368;51.436;6.774;2023-04-15T13:53:11;5.97;;;2.60;;
20417;SDS011;10368;51.436;6.774;2023-04-15T13:55:38;2.97;;;2.67;;
20417;SDS011;10368;51.436;6.774;2023-04-15T13:58:08;3.77;;;2.93;;
20417;SDS011;10368;51.436;6.774;2023-04-15T14:00:35;3.90;;;2.60;;
20417;SDS011;10368;51.436;6.774;2023-04-15T14:03:03;3.47;;;2.80;;
20417;SDS011;10368;51.436;6.774;2023-04-15T14:05:31;3.77;;;2.33;;
20417;SDS011;10368;51.436;6.774;2023-04-15T14:07:58;3.47;;;3.10;;
20417;SDS011;10368;51.436;6.774;2023-04-15T14:10:25;3.40;;;3.03;;
20417;SDS011;10368;51.436;6.774;2023-04-15T14:12:53;3.60;;;2.83;;
20417;SDS011;10368;51.436;6.774;2023-04-15T14:15:20;2.70;;;2.50;;
20417;SDS011;10368;51.436;6.774;2023-04-15T14:17:47;4.17;;;2.60;;
20417;SDS011;10368;51.436;6.774;2023-04-15T14:20:14;4.40;;;3.17;;
20417;SDS011;10368;51.436;6.774;2023-04-15T14:22:42;2.87;;;2.63;;
20417;SDS011;10368;51.436;6.774;2023-04-15T14:25:09;3.13;;;2.77;;
20417;SDS011;10368;51.436;6.774;2023-04-15T14:27:45;3.03;;;2.37;;
20417;SDS011;10368;51.436;6.774;2023-04-15T14:30:12;4.00;;;2.40;;
20417;SDS011;10368;51.436;6.774;2023-04-15T14:32:39;2.87;;;2.23;;
20417;SDS011;10368;51.436;6.774;2023-04-15T14:35:10;3.80;;;2.53;;
20417;SDS011;10368;51.436;6.774;2023-04-15T14:37:37;2.57;;;2.37;;
20417;SDS011;10368;51.436;6.774;2023-04-15T14:40:04;3.40;;;2.50;;
20417;SDS011;10368;51.436;6.774;2023-04-15T14:42:32;2.73;;;2.53;;
20417;SDS011;10368;51.436;6.774;2023-04-15T14:44:59;2.10;;;1.90;;
20417;SDS011;10368;51.436;6.774;2023-04-15T14:47:26;4.07;;;2.43;;
20417;SDS011;10368;51.436;6.774;2023-04-15T14:49:54;6.00;;;4.23;;
20417;SDS011;10368;51.436;6.774;2023-04-15T14:52:21;4.97;;;3.70;;
20417;SDS011;10368;51.436;6.774;2023-04-15T14:54:48;3.50;;;2.93;;
20417;SDS011;10368;51.436;6.774;2023-04-15T14:57:15;4.27;;;3.50;;
20417;SDS011;10368;51.436;6.774;2023-04-15T14:59:42;2.90;;;2.60;;
20417;SDS011;10368;51.436;6.774;2023-04-15T15:02:10;3.47;;;2.40;;
20417;SDS011;10368;51.436;6.774;2023-04-15T15:04:42;2.77;;;2.53;;
20417;SDS011;10368;51.436;6.774;2023-04-15T15:07:09;2.30;;;1.80;;
20417;SDS011;10368;51.436;6.774;2023-04-15T15:09:37;2.87;;;2.23;;
20417;SDS011;10368;51.436;6.774;2023-04-15T15:12:04;3.57;;;3.27;;